createdAt,value
2024-04-21T00:00:36.427Z,2.22
2024-04-21T00:01:36.501Z,2.11
2024-04-21T00:02:36.479Z,2.05
2024-04-21T00:03:36.683Z,1.96
2024-04-21T00:04:36.681Z,1.89
2024-04-21T00:05:36.645Z,1.80
2024-04-21T00:06:36.658Z,1.74
2024-04-21T00:07:37.515Z,1.85
2024-04-21T00:08:36.680Z,1.93
2024-04-21T00:10:29.502Z,2.07
2024-04-21T00:11:29.522Z,2.14
2024-04-21T00:12:29.403Z,2.19
2024-04-21T00:13:29.436Z,2.24
2024-04-21T00:14:29.396Z,2.29
2024-04-21T00:15:29.384Z,2.25
2024-04-21T00:16:30.201Z,2.26
2024-04-21T00:17:29.341Z,2.31
2024-04-21T00:18:29.420Z,2.32
2024-04-21T00:19:29.310Z,2.35
2024-04-21T00:20:29.303Z,2.27
2024-04-21T00:21:29.245Z,2.32
2024-04-21T00:22:30.035Z,2.38
2024-04-21T00:23:29.225Z,2.44
2024-04-21T00:24:29.191Z,2.50
2024-04-21T00:25:29.165Z,2.53
2024-04-21T00:26:29.158Z,2.54
2024-04-21T00:27:29.200Z,2.56
2024-04-21T00:28:29.196Z,2.58
2024-04-21T00:29:29.188Z,2.61
2024-04-21T00:30:29.100Z,2.63
2024-04-21T00:31:29.166Z,2.64
2024-04-21T00:32:30.116Z,2.66
2024-04-21T00:33:31.092Z,2.70
2024-04-21T00:34:29.730Z,2.71
2024-04-21T00:35:28.992Z,2.73
2024-04-21T00:36:29.017Z,2.71
2024-04-21T00:37:28.969Z,2.66
2024-04-21T00:38:28.967Z,2.69
2024-04-21T00:39:29.010Z,2.71
2024-04-21T00:40:28.970Z,2.71
2024-04-21T00:41:28.962Z,2.70
2024-04-21T00:42:30.560Z,2.69
2024-04-21T00:43:28.852Z,2.64
2024-04-21T00:44:29.601Z,2.61
2024-04-21T00:45:35.667Z,2.60
2024-04-21T00:46:30.155Z,2.59
2024-04-21T00:47:30.057Z,2.62
2024-04-21T00:48:29.156Z,2.66
2024-04-21T00:49:29.217Z,2.69
2024-04-21T00:50:29.137Z,2.69
2024-04-21T00:51:29.144Z,2.70
2024-04-21T00:52:29.142Z,2.72
2024-04-21T00:53:29.157Z,2.75
2024-04-21T00:54:29.208Z,2.76
2024-04-21T00:55:30.055Z,2.80
2024-04-21T00:56:29.280Z,2.82
2024-04-21T00:57:29.262Z,2.78
2024-04-21T00:58:29.316Z,2.73
2024-04-21T00:59:29.260Z,2.71
2024-04-21T01:00:29.273Z,2.70
2024-04-21T01:01:29.348Z,2.67
2024-04-21T01:02:31.107Z,2.59
2024-04-21T01:03:30.039Z,2.62
2024-04-21T01:04:29.478Z,2.61
2024-04-21T01:05:29.411Z,2.65
2024-04-21T01:06:29.422Z,2.71
2024-04-21T01:07:29.442Z,2.75
2024-04-21T01:08:29.437Z,2.78
2024-04-21T01:09:29.470Z,2.80
2024-04-21T01:10:29.437Z,2.84
2024-04-21T01:11:29.439Z,2.86
2024-04-21T01:12:29.455Z,2.87
2024-04-21T01:13:29.443Z,2.86
2024-04-21T01:14:29.430Z,2.86
2024-04-21T01:15:29.437Z,2.88
2024-04-21T01:16:29.380Z,2.88
2024-04-21T01:17:29.478Z,2.86
2024-04-21T01:18:29.363Z,2.59
2024-04-21T01:19:29.303Z,2.56
2024-04-21T01:20:29.224Z,2.61
2024-04-21T01:21:29.190Z,2.68
2024-04-21T01:22:29.174Z,2.75
2024-04-21T01:23:29.171Z,2.82
2024-04-21T01:24:29.551Z,2.85
2024-04-21T01:25:29.064Z,2.81
2024-04-21T01:26:29.046Z,2.81
2024-04-21T01:27:29.020Z,2.84
2024-04-21T01:28:28.998Z,2.85
2024-04-21T01:29:28.994Z,2.78
2024-04-21T01:30:28.951Z,2.68
2024-04-21T01:31:28.918Z,2.63
2024-04-21T01:32:28.993Z,2.63
2024-04-21T01:33:28.996Z,2.64
2024-04-21T01:34:28.973Z,2.65
2024-04-21T01:35:28.994Z,2.55
2024-04-21T01:36:29.013Z,2.55
2024-04-21T01:37:29.004Z,2.45
2024-04-21T01:38:29.006Z,2.46
2024-04-21T01:39:29.079Z,2.55
2024-04-21T01:40:29.064Z,2.61
2024-04-21T01:41:29.022Z,2.52
2024-04-21T01:42:29.014Z,2.57
2024-04-21T01:43:29.025Z,2.56
2024-04-21T01:44:29.066Z,2.60
2024-04-21T01:45:29.151Z,2.61
2024-04-21T01:46:29.102Z,2.66
2024-04-21T01:47:29.167Z,2.70
2024-04-21T01:48:29.135Z,2.72
2024-04-21T01:49:29.139Z,2.68
2024-04-21T01:50:29.166Z,2.64
2024-04-21T01:51:29.184Z,2.65
2024-04-21T01:52:29.200Z,2.66
2024-04-21T01:53:29.225Z,2.71
2024-04-21T01:54:29.239Z,2.67
2024-04-21T01:55:29.294Z,2.54
2024-04-21T01:56:29.294Z,2.59
2024-04-21T01:57:29.311Z,2.61
2024-04-21T01:58:29.376Z,2.50
2024-04-21T01:59:29.330Z,2.54
2024-04-21T02:00:29.322Z,2.58
2024-04-21T02:01:29.347Z,2.58
2024-04-21T02:02:29.330Z,2.55
2024-04-21T02:03:29.325Z,2.41
2024-04-21T02:04:29.329Z,2.44
2024-04-21T02:05:29.299Z,2.40
2024-04-21T02:06:29.318Z,2.40
2024-04-21T02:07:29.342Z,2.29
2024-04-21T02:08:29.369Z,2.19
2024-04-21T02:09:29.375Z,2.18
2024-04-21T02:10:29.454Z,2.07
2024-04-21T02:11:29.511Z,2.00
2024-04-21T02:12:29.445Z,2.04
2024-04-21T02:13:29.471Z,2.00
2024-04-21T02:14:29.916Z,1.81
2024-04-21T02:15:29.496Z,1.82
2024-04-21T02:16:29.527Z,1.87
2024-04-21T02:17:29.617Z,1.80
2024-04-21T02:18:29.596Z,1.85
2024-04-21T02:19:29.714Z,1.92
2024-04-21T02:20:29.636Z,1.82
2024-04-21T02:21:29.690Z,1.75
2024-04-21T02:22:29.678Z,1.83
2024-04-21T02:23:29.710Z,1.87
2024-04-21T02:24:29.746Z,1.95
2024-04-21T02:25:29.775Z,2.00
2024-04-21T02:26:29.838Z,2.00
2024-04-21T02:27:29.871Z,2.03
2024-04-21T02:28:29.853Z,2.06
2024-04-21T02:29:29.884Z,2.10
2024-04-21T02:30:29.914Z,2.15
2024-04-21T02:31:29.955Z,2.22
2024-04-21T02:32:30.109Z,2.27
2024-04-21T02:33:30.034Z,2.32
2024-04-21T02:34:30.009Z,2.27
2024-04-21T02:35:30.027Z,2.24
2024-04-21T02:36:30.001Z,2.29
2024-04-21T02:37:30.020Z,2.31
2024-04-21T02:38:30.027Z,2.27
2024-04-21T02:39:30.051Z,2.24
2024-04-21T02:40:30.157Z,2.26
2024-04-21T02:41:30.131Z,2.13
2024-04-21T02:42:30.191Z,2.15
2024-04-21T02:43:30.239Z,2.19
2024-04-21T02:44:30.210Z,2.21
2024-04-21T02:45:30.223Z,2.12
2024-04-21T02:46:30.295Z,2.08
2024-04-21T02:47:30.325Z,2.05
2024-04-21T02:48:30.329Z,2.04
2024-04-21T02:49:30.360Z,1.98
2024-04-21T02:50:30.363Z,2.02
2024-04-21T02:51:30.371Z,2.09
2024-04-21T02:52:30.444Z,2.16
2024-04-21T02:53:30.419Z,2.19
2024-04-21T02:54:30.444Z,2.21
2024-04-21T02:55:30.432Z,2.22
2024-04-21T02:56:30.439Z,2.17
2024-04-21T02:57:30.472Z,2.19
2024-04-21T02:58:30.524Z,2.24
2024-04-21T02:59:30.568Z,2.23
2024-04-21T03:00:30.629Z,2.19
2024-04-21T03:01:30.717Z,2.22
2024-04-21T03:02:30.717Z,2.22
2024-04-21T03:03:30.711Z,2.28
2024-04-21T03:04:30.748Z,2.31
2024-04-21T03:05:30.745Z,2.27
2024-04-21T03:06:30.746Z,2.25
2024-04-21T03:07:30.774Z,2.15
2024-04-21T03:08:30.773Z,2.20
2024-04-21T03:09:30.799Z,2.19
2024-04-21T03:10:30.846Z,2.13
2024-04-21T03:11:30.945Z,2.14
2024-04-21T03:12:30.896Z,2.14
2024-04-21T03:13:30.984Z,2.09
2024-04-21T03:14:30.881Z,2.15
2024-04-21T03:15:30.895Z,2.13
2024-04-21T03:16:30.898Z,2.17
2024-04-21T03:17:30.953Z,2.13
2024-04-21T03:18:30.940Z,2.12
2024-04-21T03:19:30.977Z,2.14
2024-04-21T03:20:30.997Z,2.12
2024-04-21T03:21:31.035Z,2.00
2024-04-21T03:22:31.059Z,2.02
2024-04-21T03:23:31.119Z,2.06
2024-04-21T03:24:31.144Z,2.04
2024-04-21T03:25:31.176Z,2.10
2024-04-21T03:26:31.200Z,1.97
2024-04-21T03:27:31.232Z,1.97
2024-04-21T03:28:31.362Z,2.00
2024-04-21T03:29:31.327Z,2.01
2024-04-21T03:30:31.367Z,2.02
2024-04-21T03:31:31.401Z,2.07
2024-04-21T03:32:31.541Z,2.11
2024-04-21T03:33:31.511Z,2.13
2024-04-21T03:34:31.516Z,2.10
2024-04-21T03:35:31.561Z,2.05
2024-04-21T03:36:31.588Z,2.03
2024-04-21T03:37:31.597Z,1.95
2024-04-21T03:38:31.692Z,1.96
2024-04-21T03:39:31.702Z,1.89
2024-04-21T03:40:31.779Z,1.85
2024-04-21T03:41:31.764Z,1.76
2024-04-21T03:42:31.799Z,1.68
2024-04-21T03:43:31.820Z,1.57
2024-04-21T03:44:31.878Z,1.55
2024-04-21T03:45:31.907Z,1.46
2024-04-21T03:46:32.000Z,1.41
2024-04-21T03:47:32.020Z,1.53
2024-04-21T03:48:32.007Z,1.58
2024-04-21T03:49:32.086Z,1.62
2024-04-21T03:50:32.068Z,1.49
2024-04-21T03:51:32.133Z,1.50
2024-04-21T03:52:32.197Z,1.55
2024-04-21T03:53:32.170Z,1.63
2024-04-21T03:54:32.168Z,1.72
2024-04-21T03:55:32.118Z,1.73
2024-04-21T03:56:32.120Z,1.77
2024-04-21T03:57:32.115Z,1.81
2024-04-21T03:58:34.464Z,1.78
2024-04-21T03:59:32.246Z,1.74
2024-04-21T04:00:32.260Z,1.74
2024-04-21T04:01:32.374Z,1.69
2024-04-21T04:02:32.273Z,1.70
2024-04-21T04:03:32.398Z,1.72
2024-04-21T04:04:32.460Z,1.76
2024-04-21T04:05:32.357Z,1.82
2024-04-21T04:06:32.361Z,1.89
2024-04-21T04:07:32.368Z,1.90
2024-04-21T04:08:32.376Z,1.81
2024-04-21T04:09:32.380Z,1.81
2024-04-21T04:10:32.406Z,1.86
2024-04-21T04:11:32.405Z,1.85
2024-04-21T04:12:32.334Z,1.91
2024-04-21T04:13:32.348Z,1.94
2024-04-21T04:14:32.372Z,2.00
2024-04-21T04:15:32.412Z,2.02
2024-04-21T04:16:32.445Z,1.95
2024-04-21T04:17:32.570Z,1.97
2024-04-21T04:18:32.488Z,1.90
2024-04-21T04:19:32.493Z,1.95
2024-04-21T04:20:33.562Z,1.97
2024-04-21T04:21:32.520Z,1.96
2024-04-21T04:22:32.528Z,2.01
2024-04-21T04:23:32.543Z,2.07
2024-04-21T04:24:32.593Z,2.11
2024-04-21T04:25:32.627Z,2.17
2024-04-21T04:26:32.613Z,2.18
2024-04-21T04:27:32.609Z,2.22
2024-04-21T04:28:32.625Z,2.23
2024-04-21T04:29:32.633Z,2.20
2024-04-21T04:30:32.701Z,2.21
2024-04-21T04:31:32.732Z,2.14
2024-04-21T04:32:32.790Z,2.14
2024-04-21T04:33:32.867Z,2.12
2024-04-21T04:34:32.852Z,2.12
2024-04-21T04:35:32.870Z,2.16
2024-04-21T04:36:32.913Z,2.10
2024-04-21T04:37:32.926Z,2.12
2024-04-21T04:38:32.942Z,2.19
2024-04-21T04:39:32.972Z,2.24
2024-04-21T04:40:32.955Z,2.27
2024-04-21T04:41:32.942Z,2.30
2024-04-21T04:42:32.995Z,2.34
2024-04-21T04:43:32.994Z,2.32
2024-04-21T04:44:33.033Z,2.34
2024-04-21T04:45:40.872Z,2.26
2024-04-21T04:46:40.870Z,2.27
2024-04-21T04:47:40.912Z,2.31
2024-04-21T04:48:40.810Z,2.33
2024-04-21T04:49:40.815Z,2.35
2024-04-21T04:50:40.805Z,2.34
2024-04-21T04:51:40.856Z,2.34
2024-04-21T04:52:40.792Z,2.33
2024-04-21T04:53:42.891Z,2.37
2024-04-21T04:54:40.797Z,2.34
2024-04-21T04:55:40.827Z,2.39
2024-04-21T04:56:40.793Z,2.42
2024-04-21T04:57:40.773Z,2.50
2024-04-21T04:58:41.777Z,2.52
2024-04-21T04:59:40.777Z,2.55
2024-04-21T05:00:40.765Z,2.56
2024-04-21T05:01:40.802Z,2.60
2024-04-21T05:02:40.814Z,2.57
2024-04-21T05:03:40.725Z,2.61
2024-04-21T05:04:40.764Z,2.63
2024-04-21T05:05:41.225Z,2.64
2024-04-21T05:06:40.618Z,2.67
2024-04-21T05:07:40.608Z,2.66
2024-04-21T05:08:40.650Z,2.66
2024-04-21T05:09:40.628Z,2.73
2024-04-21T05:10:41.290Z,2.79
2024-04-21T05:11:40.679Z,2.82
2024-04-21T05:12:40.565Z,2.84
2024-04-21T05:13:40.572Z,2.82
2024-04-21T05:14:41.265Z,2.83
2024-04-21T05:15:40.435Z,2.87
2024-04-21T05:16:40.425Z,2.92
2024-04-21T05:17:40.631Z,2.89
2024-04-21T05:18:40.334Z,2.85
2024-04-21T05:19:55.231Z,2.82
2024-04-21T05:20:40.289Z,2.86
2024-04-21T05:21:40.216Z,2.88
2024-04-21T05:22:40.721Z,2.92
2024-04-21T05:23:40.139Z,2.90
2024-04-21T05:24:40.107Z,2.96
2024-04-21T05:25:40.046Z,3.00
2024-04-21T05:26:40.010Z,3.00
2024-04-21T05:27:40.752Z,3.09
2024-04-21T05:28:49.641Z,3.19
2024-04-21T05:29:40.960Z,3.20
2024-04-21T05:30:39.970Z,3.18
2024-04-21T05:31:39.880Z,3.21
2024-04-21T05:32:40.335Z,3.26
2024-04-21T05:33:40.805Z,3.32
2024-04-21T05:34:39.696Z,3.37
2024-04-21T05:35:39.721Z,3.43
2024-04-21T05:36:39.637Z,3.49
2024-04-21T05:37:39.594Z,3.51
2024-04-21T05:38:39.548Z,3.58
2024-04-21T05:39:39.587Z,3.68
2024-04-21T05:40:39.491Z,3.77
2024-04-21T05:41:40.265Z,3.85
2024-04-21T05:42:40.238Z,3.95
2024-04-21T05:43:39.444Z,4.01
2024-04-21T05:44:39.435Z,4.05
2024-04-21T05:45:39.334Z,4.13
2024-04-21T05:46:39.320Z,4.20
2024-04-21T05:47:39.400Z,4.22
2024-04-21T05:48:39.243Z,4.26
2024-04-21T05:49:39.219Z,4.27
2024-04-21T05:50:39.226Z,4.35
2024-04-21T05:51:39.157Z,4.38
2024-04-21T05:52:40.759Z,4.39
2024-04-21T05:53:39.088Z,4.42
2024-04-21T05:54:39.234Z,4.46
2024-04-21T05:55:39.121Z,4.52
2024-04-21T05:56:39.031Z,4.56
2024-04-21T05:57:39.042Z,4.61
2024-04-21T05:58:39.737Z,4.58
2024-04-21T05:59:39.023Z,4.56
2024-04-21T06:00:39.135Z,4.40
2024-04-21T06:01:39.158Z,4.49
2024-04-21T06:02:39.744Z,4.53
2024-04-21T06:03:39.135Z,4.50
2024-04-21T06:04:39.327Z,4.62
2024-04-21T06:05:39.098Z,4.69
2024-04-21T06:06:39.110Z,4.80
2024-04-21T06:07:39.132Z,4.78
2024-04-21T06:08:39.136Z,4.76
2024-04-21T06:09:39.154Z,4.79
2024-04-21T06:10:39.192Z,4.81
2024-04-21T06:11:39.221Z,4.67
2024-04-21T06:12:39.169Z,4.65
2024-04-21T06:13:39.153Z,4.66
2024-04-21T06:14:39.172Z,4.65
2024-04-21T06:15:39.114Z,4.72
2024-04-21T06:16:39.076Z,4.75
2024-04-21T06:17:39.126Z,4.80
2024-04-21T06:18:39.315Z,4.83
2024-04-21T06:19:39.141Z,4.84
2024-04-21T06:20:39.077Z,4.86
2024-04-21T06:21:39.095Z,4.82
2024-04-21T06:22:39.085Z,4.61
2024-04-21T06:23:39.029Z,4.60
2024-04-21T06:24:39.060Z,4.68
2024-04-21T06:25:39.001Z,4.80
2024-04-21T06:26:41.752Z,4.84
2024-04-21T06:27:38.901Z,4.86
2024-04-21T06:28:38.823Z,4.97
2024-04-21T06:29:38.776Z,4.92
2024-04-21T06:30:38.743Z,4.73
2024-04-21T06:31:38.658Z,4.72
2024-04-21T06:32:38.678Z,4.61
2024-04-21T06:33:38.543Z,4.66
2024-04-21T06:34:38.508Z,4.72
2024-04-21T06:35:38.426Z,4.82
2024-04-21T06:36:38.416Z,4.89
2024-04-21T06:37:38.343Z,4.83
2024-04-21T06:38:38.286Z,4.79
2024-04-21T06:39:38.226Z,4.79
2024-04-21T06:40:38.217Z,4.60
2024-04-21T06:41:38.163Z,4.58
2024-04-21T06:42:38.052Z,4.46
2024-04-21T06:43:38.003Z,4.47
2024-04-21T06:44:37.949Z,4.53
2024-04-21T06:45:37.882Z,4.63
2024-04-21T06:46:37.830Z,4.65
2024-04-21T06:47:37.810Z,4.45
2024-04-21T06:48:37.903Z,4.31
2024-04-21T06:49:37.800Z,4.34
2024-04-21T06:50:37.706Z,4.04
2024-04-21T06:51:37.704Z,3.93
2024-04-21T06:52:37.715Z,3.84
2024-04-21T06:53:37.709Z,3.74
2024-04-21T06:54:37.721Z,3.60
2024-04-21T06:55:37.704Z,3.54
2024-04-21T06:56:37.719Z,3.52
2024-04-21T06:57:37.750Z,3.09
2024-04-21T06:58:37.783Z,2.98
2024-04-21T06:59:37.812Z,2.79
2024-04-21T07:00:37.839Z,2.61
2024-04-21T07:01:37.949Z,2.60
2024-04-21T07:02:37.957Z,2.62
2024-04-21T07:03:37.995Z,2.73
2024-04-21T07:04:37.954Z,2.72
2024-04-21T07:05:38.063Z,2.47
2024-04-21T07:06:37.995Z,2.40
2024-04-21T07:07:38.051Z,2.54
2024-04-21T07:08:38.098Z,2.63
2024-04-21T07:09:38.092Z,2.80
2024-04-21T07:10:38.221Z,2.93
2024-04-21T07:11:38.296Z,2.93
2024-04-21T07:12:38.264Z,2.71
2024-04-21T07:13:38.286Z,2.64
2024-04-21T07:14:38.273Z,2.66
2024-04-21T07:15:38.294Z,2.71
2024-04-21T07:16:38.292Z,2.54
2024-04-21T07:17:38.385Z,2.64
2024-04-21T07:18:38.450Z,2.62
2024-04-21T07:19:38.432Z,2.59
2024-04-21T07:20:38.446Z,2.50
2024-04-21T07:21:38.473Z,2.33
2024-04-21T07:22:38.498Z,2.28
2024-04-21T07:23:38.526Z,2.25
2024-04-21T07:24:38.584Z,2.28
2024-04-21T07:25:38.664Z,2.11
2024-04-21T07:26:38.620Z,2.12
2024-04-21T07:27:38.673Z,2.14
2024-04-21T07:28:38.693Z,2.18
2024-04-21T07:29:40.662Z,2.28
2024-04-21T07:30:38.694Z,2.44
2024-04-21T07:31:38.661Z,2.41
2024-04-21T07:32:38.699Z,2.48
2024-04-21T07:33:38.650Z,2.54
2024-04-21T07:34:38.611Z,2.75
2024-04-21T07:35:38.653Z,2.94
2024-04-21T07:36:38.579Z,3.13
2024-04-21T07:37:38.550Z,3.27
2024-04-21T07:38:38.509Z,3.34
2024-04-21T07:39:38.487Z,3.51
2024-04-21T07:40:38.466Z,3.67
2024-04-21T07:41:38.403Z,3.87
2024-04-21T07:42:38.349Z,4.00
2024-04-21T07:43:38.304Z,4.19
2024-04-21T07:44:38.274Z,4.37
2024-04-21T07:45:38.280Z,4.52
2024-04-21T07:46:38.185Z,4.43
2024-04-21T07:47:38.238Z,4.52
2024-04-21T07:48:38.137Z,4.63
2024-04-21T07:49:38.038Z,4.67
2024-04-21T07:50:38.005Z,4.74
2024-04-21T07:51:37.930Z,4.85
2024-04-21T07:52:37.860Z,4.84
2024-04-21T07:53:37.788Z,4.81
2024-04-21T07:54:37.740Z,4.82
2024-04-21T07:55:37.674Z,4.87
2024-04-21T07:56:37.627Z,4.97
2024-04-21T07:57:37.547Z,5.00
2024-04-21T07:58:37.475Z,5.08
2024-04-21T07:59:37.411Z,5.25
2024-04-21T08:00:37.415Z,5.45
2024-04-21T08:01:37.387Z,5.51
2024-04-21T08:02:37.250Z,5.63
2024-04-21T08:03:37.333Z,5.68
2024-04-21T08:04:37.062Z,5.81
2024-04-21T08:05:36.987Z,6.05
2024-04-21T08:06:36.914Z,6.28
2024-04-21T08:07:36.854Z,6.50
2024-04-21T08:08:36.802Z,6.67
2024-04-21T08:09:36.762Z,6.89
2024-04-21T08:10:47.436Z,6.82
2024-04-21T08:11:37.639Z,6.90
2024-04-21T08:12:36.548Z,6.95
2024-04-21T08:13:36.476Z,7.12
2024-04-21T08:14:36.397Z,7.21
2024-04-21T08:15:38.581Z,7.32
2024-04-21T08:16:36.323Z,7.53
2024-04-21T08:17:36.217Z,7.75
2024-04-21T08:18:36.126Z,7.69
2024-04-21T08:19:36.007Z,7.87
2024-04-21T08:20:35.873Z,7.84
2024-04-21T08:21:35.783Z,7.83
2024-04-21T08:22:35.692Z,8.10
2024-04-21T08:23:35.587Z,8.36
2024-04-21T08:24:35.517Z,8.60
2024-04-21T08:25:35.426Z,8.81
2024-04-21T08:26:35.361Z,8.86
2024-04-21T08:27:35.257Z,8.91
2024-04-21T08:28:35.185Z,8.79
2024-04-21T08:29:35.084Z,8.57
2024-04-21T08:30:34.983Z,8.31
2024-04-21T08:31:34.877Z,8.30
2024-04-21T08:32:34.865Z,8.41
2024-04-21T08:33:34.703Z,8.24
2024-04-21T08:34:34.652Z,8.31
2024-04-21T08:35:34.591Z,8.58
2024-04-21T08:36:34.426Z,8.47
2024-04-21T08:37:34.425Z,8.38
2024-04-21T08:38:34.307Z,8.60
2024-04-21T08:39:34.147Z,8.87
2024-04-21T08:40:34.118Z,9.03
2024-04-21T08:41:33.947Z,8.94
2024-04-21T08:42:33.848Z,8.96
2024-04-21T08:43:33.772Z,8.90
2024-04-21T08:44:33.661Z,9.06
2024-04-21T08:45:33.572Z,9.18
2024-04-21T08:46:33.497Z,9.10
2024-04-21T08:47:33.502Z,9.16
2024-04-21T08:48:33.352Z,9.37
2024-04-21T08:49:33.251Z,9.46
2024-04-21T08:50:33.137Z,9.69
2024-04-21T08:51:33.051Z,9.73
2024-04-21T08:52:33.066Z,9.83
2024-04-21T08:53:33.037Z,9.94
2024-04-21T08:54:33.005Z,9.93
2024-04-21T08:55:33.019Z,10.01
2024-04-21T08:56:33.011Z,10.08
2024-04-21T08:57:32.947Z,10.08
2024-04-21T08:58:35.915Z,10.28
2024-04-21T08:59:32.760Z,10.29
2024-04-21T09:00:32.814Z,10.42
2024-04-21T09:01:32.711Z,10.57
2024-04-21T09:02:32.642Z,10.42
2024-04-21T09:03:32.441Z,10.51
2024-04-21T09:04:34.797Z,10.40
2024-04-21T09:05:32.261Z,10.50
2024-04-21T09:06:32.112Z,10.63
2024-04-21T09:07:32.122Z,10.71
2024-04-21T09:08:31.953Z,10.76
2024-04-21T09:09:31.933Z,10.69
2024-04-21T09:10:32.019Z,10.69
2024-04-21T09:11:31.848Z,10.65
2024-04-21T09:12:32.182Z,10.67
2024-04-21T09:13:31.685Z,10.80
2024-04-21T09:14:31.687Z,10.91
2024-04-21T09:15:31.565Z,10.98
2024-04-21T09:16:31.612Z,11.13
2024-04-21T09:17:31.607Z,11.08
2024-04-21T09:18:31.447Z,10.57
2024-04-21T09:19:31.301Z,10.14
2024-04-21T09:20:31.134Z,10.34
2024-04-21T09:21:31.055Z,10.43
2024-04-21T09:22:31.808Z,10.51
2024-04-21T09:23:32.771Z,10.76
2024-04-21T09:24:30.774Z,10.87
2024-04-21T09:25:30.726Z,10.66
2024-04-21T09:26:31.252Z,10.49
2024-04-21T09:27:30.500Z,10.06
2024-04-21T09:28:30.474Z,10.32
2024-04-21T09:29:30.273Z,10.41
2024-04-21T09:30:30.284Z,10.28
2024-04-21T09:31:30.101Z,10.37
2024-04-21T09:32:30.019Z,10.51
2024-04-21T09:33:30.785Z,10.63
2024-04-21T09:34:29.809Z,10.86
2024-04-21T09:35:29.620Z,10.95
2024-04-21T09:36:31.274Z,10.84
2024-04-21T09:37:29.418Z,10.84
2024-04-21T09:38:29.228Z,10.90
2024-04-21T09:39:29.114Z,10.76
2024-04-21T09:40:29.063Z,11.06
2024-04-21T09:41:28.938Z,11.21
2024-04-21T09:42:28.882Z,11.41
2024-04-21T09:43:28.852Z,11.60
2024-04-21T09:44:28.758Z,11.77
2024-04-21T09:45:28.788Z,11.87
2024-04-21T09:46:28.730Z,12.04
2024-04-21T09:47:28.795Z,12.27
2024-04-21T09:48:29.354Z,12.44
2024-04-21T09:49:28.558Z,12.60
2024-04-21T09:50:28.570Z,12.73
2024-04-21T09:51:28.443Z,12.90
2024-04-21T09:52:28.409Z,12.99
2024-04-21T09:53:28.339Z,13.02
2024-04-21T09:54:28.289Z,12.89
2024-04-21T09:55:28.260Z,12.52
2024-04-21T09:56:29.764Z,12.62
2024-04-21T09:57:28.035Z,12.72
2024-04-21T09:58:28.080Z,12.40
2024-04-21T09:59:27.836Z,12.40
2024-04-21T10:00:27.842Z,12.41
2024-04-21T10:01:27.818Z,12.49
2024-04-21T10:02:27.609Z,12.56
2024-04-21T10:03:28.277Z,12.36
2024-04-21T10:04:27.445Z,12.29
2024-04-21T10:05:27.347Z,12.57
2024-04-21T10:06:27.262Z,12.71
2024-04-21T10:07:27.785Z,12.71
2024-04-21T10:08:27.079Z,12.93
2024-04-21T10:09:27.037Z,13.21
2024-04-21T10:10:27.003Z,13.31
2024-04-21T10:11:27.880Z,13.38
2024-04-21T10:12:26.791Z,13.46
2024-04-21T10:13:28.877Z,13.70
2024-04-21T10:14:26.556Z,13.57
2024-04-21T10:15:26.436Z,13.26
2024-04-21T10:16:26.332Z,13.34
2024-04-21T10:17:26.877Z,13.39
2024-04-21T10:18:26.329Z,13.49
2024-04-21T10:19:26.163Z,13.44
2024-04-21T10:20:25.930Z,13.62
2024-04-21T10:21:25.839Z,13.72
2024-04-21T10:22:28.333Z,13.51
2024-04-21T10:23:25.835Z,13.15
2024-04-21T10:24:25.924Z,12.85
2024-04-21T10:25:25.859Z,12.62
2024-04-21T10:26:25.620Z,12.40
2024-04-21T10:27:25.535Z,12.64
2024-04-21T10:28:25.657Z,12.83
2024-04-21T10:29:26.273Z,13.07
2024-04-21T10:30:25.267Z,13.27
2024-04-21T10:31:25.265Z,13.26
2024-04-21T10:32:25.265Z,13.36
2024-04-21T10:33:25.036Z,13.29
2024-04-21T10:34:25.871Z,12.67
2024-04-21T10:35:24.880Z,12.71
2024-04-21T10:36:24.794Z,12.65
2024-04-21T10:37:24.920Z,12.46
2024-04-21T10:38:24.572Z,12.19
2024-04-21T10:39:25.330Z,12.39
2024-04-21T10:40:24.397Z,12.11
2024-04-21T10:41:24.417Z,12.10
2024-04-21T10:42:24.179Z,11.73
2024-04-21T10:43:24.085Z,11.90
2024-04-21T10:44:25.880Z,11.95
2024-04-21T10:45:23.982Z,12.22
2024-04-21T10:46:25.835Z,12.44
2024-04-21T10:47:23.803Z,12.48
2024-04-21T10:48:24.415Z,12.64
2024-04-21T10:49:23.599Z,12.98
2024-04-21T10:50:23.457Z,13.33
2024-04-21T10:51:23.339Z,13.71
2024-04-21T10:52:23.879Z,13.83
2024-04-21T10:53:23.768Z,13.60
2024-04-21T10:54:23.094Z,13.54
2024-04-21T10:55:23.251Z,13.11
2024-04-21T10:56:22.983Z,12.07
2024-04-21T10:57:23.012Z,11.35
2024-04-21T10:58:25.883Z,11.22
2024-04-21T10:59:22.726Z,10.41
2024-04-21T11:00:22.801Z,10.88
2024-04-21T11:01:22.539Z,10.92
2024-04-21T11:02:22.516Z,10.44
2024-04-21T11:03:24.307Z,10.56
2024-04-21T11:04:22.365Z,10.37
2024-04-21T11:05:22.180Z,10.43
2024-04-21T11:06:22.041Z,10.72
2024-04-21T11:07:21.964Z,10.92
2024-04-21T11:08:21.800Z,10.77
2024-04-21T11:09:21.722Z,10.47
2024-04-21T11:10:21.751Z,10.65
2024-04-21T11:11:21.623Z,10.40
2024-04-21T11:12:21.455Z,10.73
2024-04-21T11:13:21.400Z,10.62
2024-04-21T11:14:21.303Z,10.95
2024-04-21T11:15:21.251Z,11.26
2024-04-21T11:16:21.159Z,10.77
2024-04-21T11:17:21.122Z,10.93
2024-04-21T11:18:21.149Z,11.25
2024-04-21T11:19:20.988Z,11.38
2024-04-21T11:20:20.896Z,11.83
2024-04-21T11:21:20.783Z,11.76
2024-04-21T11:22:20.735Z,11.86
2024-04-21T11:23:20.653Z,12.29
2024-04-21T11:24:20.553Z,12.55
2024-04-21T11:25:20.581Z,11.89
2024-04-21T11:26:20.399Z,12.05
2024-04-21T11:27:20.353Z,11.54
2024-04-21T11:28:20.436Z,11.26
2024-04-21T11:29:20.302Z,10.76
2024-04-21T11:30:20.276Z,10.27
2024-04-21T11:31:20.293Z,9.38
2024-04-21T11:32:20.258Z,8.93
2024-04-21T11:33:20.172Z,9.13
2024-04-21T11:34:20.195Z,8.69
2024-04-21T11:35:20.122Z,8.61
2024-04-21T11:36:20.076Z,8.83
2024-04-21T11:37:20.171Z,8.78
2024-04-21T11:38:20.123Z,8.54
2024-04-21T11:39:20.094Z,8.01
2024-04-21T11:40:20.112Z,7.72
2024-04-21T11:41:20.073Z,7.38
2024-04-21T11:42:20.066Z,7.64
2024-04-21T11:43:22.310Z,7.39
2024-04-21T11:44:20.153Z,7.20
2024-04-21T11:45:20.129Z,6.98
2024-04-21T11:46:20.148Z,7.02
2024-04-21T11:47:20.203Z,6.93
2024-04-21T11:48:20.160Z,6.83
2024-04-21T11:49:20.187Z,6.78
2024-04-21T11:50:20.190Z,6.59
2024-04-21T11:51:20.211Z,6.59
2024-04-21T11:52:20.256Z,6.56
2024-04-21T11:53:20.246Z,6.46
2024-04-21T11:54:20.260Z,6.32
2024-04-21T11:55:20.349Z,6.21
2024-04-21T11:56:20.294Z,5.80
2024-04-21T11:57:20.310Z,5.77
2024-04-21T11:58:20.314Z,5.74
2024-04-21T11:59:20.349Z,5.96
2024-04-21T12:00:20.350Z,6.15
2024-04-21T12:01:28.716Z,6.21
2024-04-21T12:02:21.484Z,6.29
2024-04-21T12:03:20.401Z,6.01
2024-04-21T12:04:20.548Z,5.95
2024-04-21T12:05:20.350Z,5.89
2024-04-21T12:06:20.334Z,5.40
2024-04-21T12:07:20.312Z,5.43
2024-04-21T12:08:20.262Z,5.16
2024-04-21T12:09:20.266Z,5.28
2024-04-21T12:10:20.330Z,5.32
2024-04-21T12:11:20.259Z,5.39
2024-04-21T12:12:20.154Z,5.64
2024-04-21T12:13:20.167Z,5.81
2024-04-21T12:14:20.174Z,5.90
2024-04-21T12:15:20.165Z,5.76
2024-04-21T12:16:20.248Z,5.48
2024-04-21T12:17:20.239Z,5.50
2024-04-21T12:18:20.247Z,5.36
2024-04-21T12:19:20.319Z,5.24
2024-04-21T12:20:20.282Z,5.23
2024-04-21T12:21:20.318Z,5.18
2024-04-21T12:22:20.346Z,5.02
2024-04-21T12:23:20.330Z,4.98
2024-04-21T12:24:20.328Z,5.05
2024-04-21T12:25:20.399Z,4.97
2024-04-21T12:26:20.335Z,4.98
2024-04-21T12:27:20.334Z,4.93
2024-04-21T12:28:20.372Z,4.94
2024-04-21T12:29:20.363Z,4.89
2024-04-21T12:30:20.400Z,5.07
2024-04-21T12:31:20.455Z,5.07
2024-04-21T12:32:20.502Z,4.81
2024-04-21T12:33:20.539Z,4.75
2024-04-21T12:34:20.534Z,4.66
2024-04-21T12:35:20.572Z,4.67
2024-04-21T12:36:20.532Z,4.66
2024-04-21T12:37:20.602Z,4.74
2024-04-21T12:38:20.581Z,4.92
2024-04-21T12:39:21.393Z,5.10
2024-04-21T12:40:20.692Z,5.30
2024-04-21T12:41:20.675Z,5.40
2024-04-21T12:42:20.669Z,5.52
2024-04-21T12:43:20.787Z,5.51
2024-04-21T12:44:20.650Z,5.69
2024-04-21T12:45:20.617Z,5.99
2024-04-21T12:46:20.586Z,6.31
2024-04-21T12:47:20.444Z,6.63
2024-04-21T12:48:20.377Z,6.90
2024-04-21T12:49:20.390Z,7.23
2024-04-21T12:50:20.286Z,7.55
2024-04-21T12:51:20.795Z,7.86
2024-04-21T12:52:20.230Z,8.09
2024-04-21T12:53:20.235Z,8.35
2024-04-21T12:54:21.966Z,8.58
2024-04-21T12:55:20.093Z,8.85
2024-04-21T12:56:20.016Z,9.13
2024-04-21T12:57:20.023Z,9.46
2024-04-21T12:58:20.081Z,9.67
2024-04-21T12:59:20.802Z,9.93
2024-04-21T13:00:21.792Z,10.21
2024-04-21T13:01:20.145Z,10.46
2024-04-21T13:02:20.000Z,10.67
2024-04-21T13:03:20.017Z,10.91
2024-04-21T13:04:20.068Z,11.18
2024-04-21T13:05:19.937Z,11.33
2024-04-21T13:06:19.955Z,11.55
2024-04-21T13:07:19.937Z,11.77
2024-04-21T13:08:19.930Z,11.90
2024-04-21T13:09:19.922Z,12.08
2024-04-21T13:10:19.957Z,12.23
2024-04-21T13:11:19.871Z,12.36
2024-04-21T13:12:19.803Z,12.48
2024-04-21T13:13:19.800Z,12.45